Time;durP1;ratioP1;P1;durP2;ratioP2;P2;SDS_P1;SDS_P2;PMS_P1;PMS_P2;Temp;Humidity;BMP_temperature;BMP_pressure;BME280_temperature;BME280_humidity;BME280_pressure;Samples;Min_cycle;Max_cycle;Signal;HPM_P1;HPM_P2
2023/07/27 00:01:28;;;;;;;9.93;7.05;;;13.80;99.90;;;;;;5023096;28;20488;-55
2023/07/27 00:03:54;;;;;;;9.48;6.97;;;13.80;99.90;;;;;;5046059;28;20115;-55
2023/07/27 00:06:20;;;;;;;10.15;6.95;;;13.90;99.90;;;;;;5024710;28;20043;-56
2023/07/27 00:08:46;;;;;;;10.68;7.53;;;13.80;99.90;;;;;;5029617;28;20040;-56
2023/07/27 00:11:12;;;;;;;11.48;7.68;;;13.80;99.90;;;;;;5015741;28;20117;-55
2023/07/27 00:13:38;;;;;;;10.75;8.02;;;13.80;99.90;;;;;;5016485;28;20175;-55
2023/07/27 00:16:04;;;;;;;11.63;7.85;;;13.80;99.90;;;;;;5022804;28;20124;-54
2023/07/27 00:18:29;;;;;;;9.45;7.15;;;13.80;99.90;;;;;;5023687;28;20103;-55
2023/07/27 00:20:55;;;;;;;11.15;7.20;;;13.80;99.90;;;;;;5006743;28;20075;-55
2023/07/27 00:23:21;;;;;;;11.07;6.47;;;13.80;99.90;;;;;;5025223;28;20033;-56
2023/07/27 00:25:46;;;;;;;9.45;6.47;;;13.80;99.90;;;;;;5027238;28;20135;-55
2023/07/27 00:28:12;;;;;;;10.82;7.15;;;13.80;99.90;;;;;;5023095;28;20044;-55
2023/07/27 00:30:38;;;;;;;12.38;7.15;;;13.80;99.90;;;;;;5020271;28;20117;-55
2023/07/27 00:33:03;;;;;;;11.02;6.43;;;13.80;99.90;;;;;;5026605;28;20111;-54
2023/07/27 00:35:29;;;;;;;11.50;6.90;;;13.70;99.90;;;;;;5026015;28;20037;-55
2023/07/27 00:37:55;;;;;;;11.60;7.35;;;13.80;99.90;;;;;;5012407;28;20472;-56
2023/07/27 00:40:21;;;;;;;11.82;7.75;;;13.80;99.90;;;;;;5023459;28;20064;-54
2023/07/27 00:42:46;;;;;;;12.20;7.13;;;13.80;99.90;;;;;;5015208;28;20424;-54
2023/07/27 00:45:12;;;;;;;10.40;7.15;;;13.70;99.90;;;;;;5020404;28;20036;-55
2023/07/27 00:47:38;;;;;;;12.50;7.22;;;13.80;99.90;;;;;;5010708;28;20037;-55
2023/07/27 00:50:04;;;;;;;9.63;6.60;;;13.80;99.90;;;;;;5026351;28;20045;-55
2023/07/27 00:52:30;;;;;;;9.38;6.68;;;13.80;99.90;;;;;;5030411;28;20056;-55
2023/07/27 00:54:58;;;;;;;10.18;7.13;;;13.80;99.90;;;;;;5025647;28;20045;-55
2023/07/27 00:57:24;;;;;;;12.35;6.70;;;13.70;99.90;;;;;;5039483;28;20493;-55
2023/07/27 00:59:51;;;;;;;11.07;7.13;;;13.80;99.90;;;;;;5031449;28;20138;-55
2023/07/27 01:02:16;;;;;;;11.07;7.70;;;13.80;99.90;;;;;;5032254;28;20037;-54
2023/07/27 01:04:43;;;;;;;10.38;6.68;;;13.80;99.90;;;;;;5030658;28;20123;-55
2023/07/27 01:07:09;;;;;;;10.18;6.28;;;13.80;99.90;;;;;;5029734;28;20041;-55
2023/07/27 01:09:34;;;;;;;11.02;6.93;;;13.80;99.90;;;;;;5048272;28;20403;-55
2023/07/27 01:12:15;;;;;;;10.13;6.22;;;13.80;99.90;;;;;;5023985;28;20041;-54
2023/07/27 01:15:25;;;;;;;9.32;6.38;;;13.80;99.90;;;;;;5031765;28;20087;-53
2023/07/27 01:18:00;;;;;;;10.20;5.97;;;13.80;99.90;;;;;;5002159;28;20053;-53
2023/07/27 01:20:51;;;;;;;12.77;7.45;;;13.80;99.90;;;;;;5033914;28;20044;-54
2023/07/27 01:23:34;;;;;;;11.70;6.25;;;13.80;99.90;;;;;;5044092;28;20038;-54
2023/07/27 01:26:12;;;;;;;9.48;6.85;;;13.80;99.90;;;;;;5032810;28;20033;-55
2023/07/27 01:29:02;;;;;;;9.75;6.82;;;13.90;99.90;;;;;;5025531;28;20514;-53
2023/07/27 01:31:41;;;;;;;12.35;7.88;;;13.80;99.90;;;;;;5034095;28;20412;-52
2023/07/27 01:34:31;;;;;;;10.30;7.18;;;13.70;99.90;;;;;;5032407;28;20051;-55
2023/07/27 01:37:04;;;;;;;10.85;7.35;;;13.70;99.90;;;;;;5026277;28;20126;-55
2023/07/27 01:39:40;;;;;;;10.23;7.30;;;13.70;99.90;;;;;;5029081;28;20048;-53
2023/07/27 01:42:08;;;;;;;10.77;6.78;;;13.70;99.90;;;;;;5024491;28;20068;-53
2023/07/27 01:44:34;;;;;;;14.02;7.95;;;13.70;99.90;;;;;;5028627;28;20045;-55
2023/07/27 01:47:01;;;;;;;13.30;7.60;;;13.70;99.90;;;;;;5041688;28;20037;-55
2023/07/27 01:49:29;;;;;;;9.15;7.00;;;13.70;99.90;;;;;;5046990;28;20045;-55
2023/07/27 01:51:56;;;;;;;9.20;7.05;;;13.70;99.90;;;;;;5020514;28;20044;-53
2023/07/27 01:54:23;;;;;;;9.65;7.10;;;13.70;99.90;;;;;;5025703;28;20079;-54
2023/07/27 01:56:50;;;;;;;10.60;7.50;;;13.70;99.90;;;;;;5031550;28;20373;-54
2023/07/27 01:59:17;;;;;;;9.82;7.32;;;13.70;99.90;;;;;;5042528;28;20029;-53
2023/07/27 02:01:43;;;;;;;10.13;6.85;;;13.70;99.90;;;;;;5028912;28;20132;-54
2023/07/27 02:04:10;;;;;;;14.13;7.35;;;13.70;99.90;;;;;;5041322;28;20044;-56
2023/07/27 02:06:35;;;;;;;11.75;7.45;;;13.60;99.90;;;;;;5040027;28;20087;-55
2023/07/27 02:09:01;;;;;;;11.20;6.38;;;13.80;99.90;;;;;;5024829;28;20499;-52
2023/07/27 02:11:27;;;;;;;11.95;6.90;;;13.70;99.90;;;;;;5016835;28;20063;-55
2023/07/27 02:13:53;;;;;;;10.13;7.10;;;13.80;99.90;;;;;;5025526;28;20135;-53
2023/07/27 02:16:30;;;;;;;12.20;7.25;;;13.80;99.90;;;;;;5033136;28;20044;-55
2023/07/27 02:18:59;;;;;;;9.48;7.00;;;13.80;99.90;;;;;;5026229;28;20064;-55
2023/07/27 02:21:28;;;;;;;9.38;7.47;;;13.80;99.90;;;;;;5016024;28;20048;-55
2023/07/27 02:23:54;;;;;;;11.18;6.95;;;13.80;99.90;;;;;;5023747;28;20064;-56
2023/07/27 02:26:20;;;;;;;11.10;7.18;;;13.80;99.90;;;;;;5039799;28;20034;-55
2023/07/27 02:28:46;;;;;;;10.27;7.18;;;13.80;99.90;;;;;;5031974;28;20509;-55
2023/07/27 02:31:11;;;;;;;8.82;6.20;;;13.80;99.90;;;;;;5027983;28;20040;-56
2023/07/27 02:33:37;;;;;;;14.43;7.35;;;13.80;99.90;;;;;;5029364;28;20066;-55
2023/07/27 02:36:03;;;;;;;11.68;6.70;;;13.80;99.90;;;;;;5010813;28;20187;-56
2023/07/27 02:38:28;;;;;;;9.63;6.60;;;13.90;99.90;;;;;;5024269;28;20052;-56
2023/07/27 02:40:54;;;;;;;10.05;6.70;;;13.90;99.90;;;;;;5025857;28;20048;-55
2023/07/27 02:43:20;;;;;;;11.30;7.68;;;13.90;99.90;;;;;;5040751;28;20501;-55
2023/07/27 02:45:46;;;;;;;8.52;6.10;;;13.90;99.90;;;;;;5017279;28;20526;-54
2023/07/27 02:48:12;;;;;;;9.93;6.72;;;13.90;99.90;;;;;;5025994;28;20049;-55
2023/07/27 02:50:37;;;;;;;12.65;7.82;;;13.90;99.90;;;;;;5037763;28;20089;-55
2023/07/27 02:53:03;;;;;;;11.18;7.05;;;13.90;99.90;;;;;;5007470;28;20485;-54
2023/07/27 02:55:29;;;;;;;9.95;6.85;;;14.00;99.90;;;;;;5026523;28;20048;-55
2023/07/27 02:57:54;;;;;;;10.15;6.97;;;14.00;99.90;;;;;;5030970;28;20072;-55
2023/07/27 03:00:20;;;;;;;9.85;6.70;;;14.00;99.90;;;;;;5007477;28;20380;-55
2023/07/27 03:02:46;;;;;;;11.13;7.25;;;14.00;99.90;;;;;;5028427;28;20377;-55
2023/07/27 03:05:11;;;;;;;8.77;6.35;;;14.00;99.90;;;;;;5027888;28;20041;-53
2023/07/27 03:07:37;;;;;;;11.80;7.15;;;14.10;99.90;;;;;;5037879;28;20284;-52
2023/07/27 03:10:03;;;;;;;9.98;6.80;;;14.10;99.90;;;;;;5039413;28;20400;-53
2023/07/27 03:12:29;;;;;;;10.15;7.07;;;14.10;99.90;;;;;;5026987;28;20040;-55
2023/07/27 03:14:55;;;;;;;10.27;7.70;;;14.10;99.90;;;;;;5039719;28;20037;-54
2023/07/27 03:17:20;;;;;;;13.13;7.15;;;14.10;99.90;;;;;;5019613;28;20179;-54
2023/07/27 03:19:46;;;;;;;9.88;6.65;;;14.10;99.90;;;;;;5026098;28;20373;-53
2023/07/27 03:22:12;;;;;;;9.88;6.88;;;14.20;99.90;;;;;;5031325;28;20174;-53
2023/07/27 03:24:37;;;;;;;9.85;6.55;;;14.20;99.90;;;;;;5029379;28;20040;-53
2023/07/27 03:27:03;;;;;;;11.20;7.10;;;14.20;99.90;;;;;;5026856;28;20264;-53
2023/07/27 03:29:30;;;;;;;9.88;7.25;;;14.20;99.90;;;;;;5023815;28;20037;-55
2023/07/27 03:31:55;;;;;;;9.63;6.70;;;14.20;99.90;;;;;;5011837;28;20052;-52
2023/07/27 03:34:21;;;;;;;15.55;7.75;;;14.10;99.90;;;;;;5023257;28;20420;-53
2023/07/27 03:36:47;;;;;;;10.10;6.63;;;14.10;99.90;;;;;;5027662;28;20587;-53
2023/07/27 03:39:12;;;;;;;11.23;7.40;;;14.20;99.90;;;;;;5022626;28;20055;-53
2023/07/27 03:41:38;;;;;;;13.13;7.03;;;14.20;99.90;;;;;;5023568;28;20537;-55
2023/07/27 03:44:04;;;;;;;12.57;7.95;;;14.20;99.90;;;;;;5023344;28;20044;-55
2023/07/27 03:46:29;;;;;;;10.13;7.45;;;14.20;99.90;;;;;;5022725;28;20428;-55
2023/07/27 03:48:55;;;;;;;10.32;7.10;;;14.20;99.90;;;;;;5013635;28;20099;-54
2023/07/27 03:51:21;;;;;;;12.85;7.63;;;14.20;99.90;;;;;;5039450;28;20037;-55
2023/07/27 03:53:46;;;;;;;10.48;7.30;;;14.20;99.90;;;;;;4997588;28;20052;-54
2023/07/27 03:56:12;;;;;;;10.68;7.10;;;14.20;99.90;;;;;;5036097;28;20522;-54
2023/07/27 03:58:38;;;;;;;11.88;7.95;;;14.20;99.90;;;;;;5011872;28;20036;-55
2023/07/27 04:01:04;;;;;;;11.85;8.18;;;14.20;99.90;;;;;;5009115;28;20076;-55
2023/07/27 04:03:29;;;;;;;13.32;8.73;;;14.20;99.90;;;;;;5043080;28;20064;-54
2023/07/27 04:05:55;;;;;;;12.30;8.00;;;14.30;99.90;;;;;;5023386;28;20044;-53
2023/07/27 04:08:21;;;;;;;11.38;7.50;;;14.30;99.90;;;;;;5021218;28;20037;-55
2023/07/27 04:10:47;;;;;;;13.65;8.13;;;14.30;99.90;;;;;;5025778;28;20148;-52
2023/07/27 04:13:12;;;;;;;12.00;8.48;;;14.30;99.90;;;;;;5034113;28;20506;-55
2023/07/27 04:15:38;;;;;;;11.90;8.90;;;14.30;99.90;;;;;;5022676;28;20286;-55
2023/07/27 04:18:05;;;;;;;12.15;8.15;;;14.30;99.90;;;;;;4998863;23;20034;-57
2023/07/27 04:20:30;;;;;;;12.63;8.32;;;14.30;99.90;;;;;;5006492;28;20065;-57
2023/07/27 04:22:56;;;;;;;14.05;8.77;;;14.30;99.90;;;;;;5005155;28;20541;-56
2023/07/27 04:25:23;;;;;;;13.98;8.52;;;14.30;99.90;;;;;;5003828;28;20057;-58
2023/07/27 04:27:52;;;;;;;12.10;8.82;;;14.30;99.90;;;;;;5005280;28;20548;-58
2023/07/27 04:30:18;;;;;;;11.07;8.30;;;14.30;99.90;;;;;;5006423;28;20056;-58
2023/07/27 04:32:45;;;;;;;12.25;8.45;;;14.30;99.90;;;;;;4985225;28;20091;-57
2023/07/27 04:35:11;;;;;;;11.63;8.93;;;14.30;99.90;;;;;;4994804;28;20076;-58
2023/07/27 04:37:36;;;;;;;11.70;8.27;;;14.30;99.90;;;;;;4988771;28;20493;-57
2023/07/27 04:40:02;;;;;;;14.73;8.85;;;14.30;99.90;;;;;;4989313;28;20108;-57
2023/07/27 04:42:28;;;;;;;13.13;8.95;;;14.30;99.90;;;;;;5012230;28;20570;-56
2023/07/27 04:44:54;;;;;;;13.68;9.48;;;14.30;99.90;;;;;;5009897;28;20053;-57
2023/07/27 04:47:19;;;;;;;14.20;9.65;;;14.30;99.90;;;;;;5004622;28;20038;-57
2023/07/27 04:49:46;;;;;;;14.00;9.43;;;14.30;99.90;;;;;;4989206;28;20564;-57
2023/07/27 04:52:12;;;;;;;12.90;9.25;;;14.20;99.90;;;;;;5004712;28;20077;-57
2023/07/27 04:54:37;;;;;;;16.23;10.95;;;14.30;99.90;;;;;;5009392;28;20422;-57
2023/07/27 04:57:03;;;;;;;17.25;12.52;;;14.20;99.90;;;;;;5010740;28;20038;-57
2023/07/27 04:59:29;;;;;;;16.88;10.23;;;14.20;99.90;;;;;;5009912;28;20555;-56
2023/07/27 05:01:55;;;;;;;15.48;10.52;;;14.30;99.90;;;;;;5010078;28;20045;-58
2023/07/27 05:04:20;;;;;;;17.23;10.57;;;14.30;99.90;;;;;;4996578;28;20042;-55
2023/07/27 05:06:46;;;;;;;14.45;10.35;;;14.30;99.90;;;;;;5006628;28;20034;-58
2023/07/27 05:09:12;;;;;;;14.55;9.55;;;14.30;99.90;;;;;;5013599;28;20026;-56
2023/07/27 05:11:37;;;;;;;14.02;10.35;;;14.30;99.90;;;;;;4999028;28;20041;-58
2023/07/27 05:14:03;;;;;;;13.75;10.43;;;14.40;99.90;;;;;;5012775;28;20037;-57
2023/07/27 05:16:30;;;;;;;13.82;8.88;;;14.40;99.90;;;;;;4997407;28;20037;-56
2023/07/27 05:18:57;;;;;;;16.00;9.95;;;14.40;99.90;;;;;;5007915;28;20393;-57
2023/07/27 05:21:23;;;;;;;11.70;7.80;;;14.40;99.90;;;;;;5013771;28;20041;-57
2023/07/27 05:23:49;;;;;;;15.35;9.95;;;14.50;99.90;;;;;;5010064;28;20100;-58
2023/07/27 05:26:15;;;;;;;14.68;10.10;;;14.50;99.90;;;;;;5008777;28;20080;-58
2023/07/27 05:28:40;;;;;;;16.00;10.13;;;14.50;99.90;;;;;;5009718;28;20595;-57
2023/07/27 05:31:07;;;;;;;14.07;9.70;;;14.50;99.90;;;;;;5014449;28;20077;-59
2023/07/27 05:33:33;;;;;;;14.65;9.90;;;14.50;99.90;;;;;;4995661;28;20026;-58
2023/07/27 05:35:59;;;;;;;12.18;8.98;;;14.50;99.90;;;;;;4994483;28;20048;-58
2023/07/27 05:38:25;;;;;;;15.65;10.13;;;14.50;99.90;;;;;;5004152;28;20038;-59
2023/07/27 05:40:50;;;;;;;13.32;9.35;;;14.50;99.90;;;;;;5015610;28;20038;-59
2023/07/27 05:43:16;;;;;;;13.55;9.98;;;14.50;99.90;;;;;;5015984;28;20034;-59
2023/07/27 05:45:42;;;;;;;13.93;9.23;;;14.60;99.90;;;;;;5014214;28;20042;-58
2023/07/27 05:48:08;;;;;;;14.52;9.50;;;14.60;99.90;;;;;;5005954;28;20074;-58
2023/07/27 05:50:34;;;;;;;11.60;8.45;;;14.60;99.90;;;;;;5008446;28;20037;-59
2023/07/27 05:53:00;;;;;;;13.85;10.27;;;14.60;99.90;;;;;;5012092;28;20042;-59
2023/07/27 05:55:26;;;;;;;15.65;9.18;;;14.60;99.90;;;;;;4976726;28;20041;-58
2023/07/27 05:57:54;;;;;;;15.02;9.38;;;14.60;99.90;;;;;;5005386;28;20080;-59
2023/07/27 06:00:20;;;;;;;13.63;10.00;;;14.60;99.90;;;;;;5009700;28;21007;-59
2023/07/27 06:02:46;;;;;;;12.82;9.18;;;14.60;99.90;;;;;;5007601;28;20030;-58
2023/07/27 06:05:11;;;;;;;13.43;7.93;;;14.70;99.90;;;;;;5014995;28;20041;-59
2023/07/27 06:07:37;;;;;;;12.05;8.45;;;14.70;99.90;;;;;;5011512;28;20057;-58
2023/07/27 06:10:03;;;;;;;11.32;8.38;;;14.70;99.90;;;;;;5007916;28;20559;-58
2023/07/27 06:12:29;;;;;;;11.77;7.97;;;14.70;99.90;;;;;;4993115;28;20218;-58
2023/07/27 06:14:54;;;;;;;10.65;7.18;;;14.80;99.90;;;;;;5007873;28;20048;-58
2023/07/27 06:17:21;;;;;;;11.20;7.90;;;14.80;99.90;;;;;;4990802;28;20042;-58
2023/07/27 06:19:46;;;;;;;11.85;8.57;;;14.80;99.90;;;;;;4993359;28;20073;-59
2023/07/27 06:22:12;;;;;;;9.05;6.65;;;14.80;99.90;;;;;;5005993;28;20062;-59
2023/07/27 06:24:38;;;;;;;9.95;7.57;;;14.90;99.90;;;;;;5005059;28;20041;-58
2023/07/27 06:27:04;;;;;;;9.40;7.10;;;14.90;99.90;;;;;;5005581;28;20061;-57
2023/07/27 06:29:30;;;;;;;9.10;6.75;;;15.00;99.90;;;;;;5003235;28;20095;-58
2023/07/27 06:31:56;;;;;;;12.43;7.72;;;15.10;99.90;;;;;;5007532;28;20076;-58
2023/07/27 06:34:22;;;;;;;10.75;7.22;;;15.00;99.90;;;;;;5008361;28;20508;-61
2023/07/27 06:36:48;;;;;;;10.63;7.20;;;15.10;99.90;;;;;;5012065;28;20537;-61
2023/07/27 06:39:13;;;;;;;10.13;7.38;;;15.10;99.90;;;;;;4992649;28;20441;-61
2023/07/27 06:41:39;;;;;;;9.20;7.03;;;15.10;99.90;;;;;;5006990;28;20049;-60
2023/07/27 06:44:05;;;;;;;10.13;7.60;;;15.10;99.90;;;;;;4990808;28;20041;-60
2023/07/27 06:46:31;;;;;;;10.05;6.78;;;15.10;99.90;;;;;;5002692;28;20074;-59
2023/07/27 06:48:57;;;;;;;10.27;7.00;;;15.10;99.90;;;;;;5006561;28;20185;-59
2023/07/27 06:51:23;;;;;;;8.38;6.20;;;15.20;99.90;;;;;;5007306;28;20592;-58
2023/07/27 06:53:50;;;;;;;8.23;6.35;;;15.20;99.90;;;;;;4988979;28;20046;-60
2023/07/27 06:56:17;;;;;;;8.68;6.50;;;15.30;99.90;;;;;;4986712;28;20049;-60
2023/07/27 06:58:43;;;;;;;8.95;6.88;;;15.30;99.90;;;;;;5006715;28;20038;-60
2023/07/27 07:01:10;;;;;;;10.68;7.28;;;15.30;99.90;;;;;;4992945;28;20042;-60
2023/07/27 07:03:36;;;;;;;9.73;6.80;;;15.40;99.90;;;;;;4988588;28;20041;-60
2023/07/27 07:06:02;;;;;;;9.70;6.30;;;15.40;99.90;;;;;;5006430;28;20038;-60
2023/07/27 07:08:29;;;;;;;9.77;7.68;;;15.50;99.90;;;;;;5004470;28;20069;-59
2023/07/27 07:10:55;;;;;;;8.10;6.35;;;15.50;99.90;;;;;;5003265;28;20062;-59
2023/07/27 07:13:21;;;;;;;8.05;5.85;;;15.60;99.90;;;;;;5006974;28;20456;-59
2023/07/27 07:15:49;;;;;;;10.82;6.47;;;15.70;99.90;;;;;;5007106;28;20134;-57
2023/07/27 07:18:14;;;;;;;9.13;6.45;;;15.80;99.90;;;;;;5005381;28;20117;-59
2023/07/27 07:20:40;;;;;;;8.98;6.68;;;15.80;99.90;;;;;;4974047;28;20514;-59
2023/07/27 07:23:06;;;;;;;11.25;7.07;;;15.90;99.90;;;;;;5008377;28;20030;-60
2023/07/27 07:25:32;;;;;;;9.23;6.47;;;15.90;99.90;;;;;;5006238;28;20112;-58
2023/07/27 07:27:57;;;;;;;8.38;6.53;;;16.00;99.90;;;;;;5007466;28;20053;-59
2023/07/27 07:30:23;;;;;;;8.10;6.00;;;16.00;99.90;;;;;;5012374;28;20038;-59
2023/07/27 07:32:53;;;;;;;9.13;6.80;;;16.10;99.90;;;;;;4975027;28;20046;-59
2023/07/27 07:35:19;;;;;;;7.03;6.28;;;16.10;99.90;;;;;;5006858;28;21222;-59
2023/07/27 07:37:45;;;;;;;8.57;6.55;;;16.10;99.90;;;;;;4988315;28;20481;-58
2023/07/27 07:40:11;;;;;;;7.22;5.90;;;16.10;99.90;;;;;;5007660;28;20041;-59
2023/07/27 07:42:37;;;;;;;5.95;4.70;;;16.10;99.90;;;;;;5002501;28;20038;-60
2023/07/27 07:45:03;;;;;;;6.97;5.40;;;16.10;99.90;;;;;;5009934;28;20121;-59
2023/07/27 07:47:28;;;;;;;7.28;5.75;;;16.10;99.90;;;;;;5007092;28;20429;-59
2023/07/27 07:49:54;;;;;;;5.82;4.00;;;16.10;99.90;;;;;;5005505;28;20045;-58
2023/07/27 07:52:20;;;;;;;6.93;4.80;;;16.20;99.90;;;;;;5004975;28;20427;-57
2023/07/27 07:54:45;;;;;;;5.50;4.32;;;16.20;99.90;;;;;;4983818;28;20048;-57
2023/07/27 07:57:11;;;;;;;6.18;4.80;;;16.20;99.90;;;;;;5005703;28;20684;-56
2023/07/27 07:59:37;;;;;;;7.18;4.38;;;16.20;99.90;;;;;;5005189;28;20116;-57
2023/07/27 08:02:03;;;;;;;5.30;4.10;;;16.20;99.90;;;;;;5005081;28;20038;-56
2023/07/27 08:04:30;;;;;;;5.47;4.20;;;16.20;99.90;;;;;;5005835;28;20508;-58
2023/07/27 08:06:56;;;;;;;7.70;4.75;;;16.20;99.90;;;;;;5000636;28;20042;-57
2023/07/27 08:09:22;;;;;;;6.53;4.10;;;16.10;99.90;;;;;;5002326;28;20044;-57
2023/07/27 08:11:47;;;;;;;4.97;4.13;;;16.20;99.90;;;;;;5009882;28;20439;-58
2023/07/27 08:14:13;;;;;;;4.47;3.95;;;16.10;99.90;;;;;;5004414;28;20117;-58
2023/07/27 08:16:39;;;;;;;5.45;4.32;;;16.10;99.90;;;;;;4988146;28;20025;-57
2023/07/27 08:19:05;;;;;;;4.97;4.00;;;16.10;99.90;;;;;;4989635;28;20063;-58
2023/07/27 08:21:30;;;;;;;5.68;4.25;;;16.20;99.90;;;;;;5007197;28;20527;-57
2023/07/27 08:23:57;;;;;;;6.07;4.15;;;16.20;99.90;;;;;;4985614;28;20047;-57
2023/07/27 08:26:23;;;;;;;5.50;4.00;;;16.20;99.90;;;;;;4989363;28;20042;-59
2023/07/27 08:28:49;;;;;;;4.28;3.58;;;16.20;99.90;;;;;;5003751;28;20049;-58
2023/07/27 08:31:14;;;;;;;3.88;3.17;;;16.20;99.90;;;;;;5008117;28;20510;-57
2023/07/27 08:33:40;;;;;;;3.88;2.92;;;16.20;99.90;;;;;;5002895;28;20088;-59
2023/07/27 08:36:06;;;;;;;4.25;2.60;;;16.20;99.90;;;;;;4988700;28;20508;-57
2023/07/27 08:38:32;;;;;;;3.85;2.95;;;16.20;99.90;;;;;;5002769;28;20038;-59
2023/07/27 08:40:59;;;;;;;4.25;2.78;;;16.20;99.90;;;;;;4977821;28;20805;-56
2023/07/27 08:43:26;;;;;;;5.28;2.47;;;16.30;99.90;;;;;;4992320;28;20485;-56
2023/07/27 08:45:53;;;;;;;2.90;2.25;;;16.30;99.90;;;;;;4998783;28;20038;-57
2023/07/27 08:48:19;;;;;;;3.10;2.58;;;16.40;99.90;;;;;;5003820;28;20042;-57
2023/07/27 08:50:46;;;;;;;2.60;2.10;;;16.40;99.90;;;;;;4990302;28;20037;-58
2023/07/27 08:53:13;;;;;;;2.97;2.30;;;16.40;99.90;;;;;;4999075;28;20124;-57
2023/07/27 08:55:40;;;;;;;2.95;1.90;;;16.40;99.90;;;;;;5008862;28;20057;-65
2023/07/27 08:58:07;;;;;;;2.60;1.73;;;16.40;99.90;;;;;;5006977;28;20046;-60
2023/07/27 09:00:33;;;;;;;2.20;1.60;;;16.40;99.90;;;;;;5004199;28;20049;-60
2023/07/27 09:02:59;;;;;;;2.22;1.60;;;16.40;99.90;;;;;;4998900;28;20038;-61
2023/07/27 09:05:41;;;;;;;2.25;1.65;;;16.40;99.90;;;;;;5000348;28;20041;-58
2023/07/27 09:08:08;;;;;;;2.45;1.95;;;16.40;99.90;;;;;;4998222;28;20053;-60
2023/07/27 09:10:39;;;;;;;2.65;2.00;;;16.30;99.90;;;;;;4997824;28;20053;-57
2023/07/27 09:13:05;;;;;;;2.97;2.17;;;16.30;99.90;;;;;;5002554;28;20125;-57
2023/07/27 09:15:34;;;;;;;2.55;2.03;;;16.30;99.90;;;;;;4999083;28;20033;-59
2023/07/27 09:18:01;;;;;;;3.97;2.45;;;16.40;99.90;;;;;;4998041;28;20121;-58
2023/07/27 09:20:31;;;;;;;3.15;2.50;;;16.40;99.90;;;;;;4996901;28;20038;-57
2023/07/27 09:22:57;;;;;;;3.78;2.97;;;16.50;99.90;;;;;;4993694;28;20056;-57
2023/07/27 09:25:23;;;;;;;3.13;2.47;;;16.50;99.90;;;;;;4972793;28;20075;-57
2023/07/27 09:27:55;;;;;;;3.53;3.05;;;16.50;99.90;;;;;;4988055;28;20045;-59
2023/07/27 09:30:23;;;;;;;4.05;3.00;;;16.60;99.90;;;;;;5004502;28;21469;-58
2023/07/27 09:32:50;;;;;;;2.80;2.45;;;16.60;99.90;;;;;;5005540;28;20034;-59
2023/07/27 09:35:18;;;;;;;3.72;3.30;;;16.70;99.90;;;;;;5003911;28;20046;-58
2023/07/27 09:37:44;;;;;;;3.70;2.90;;;16.70;99.90;;;;;;5009944;28;20452;-57
2023/07/27 09:40:13;;;;;;;3.65;2.53;;;16.80;99.90;;;;;;5001199;28;20709;-58
2023/07/27 09:42:42;;;;;;;3.38;2.72;;;16.80;99.90;;;;;;4998303;28;20045;-60
2023/07/27 09:45:08;;;;;;;2.95;2.60;;;16.80;99.90;;;;;;4982848;28;20157;-57
2023/07/27 09:47:35;;;;;;;3.67;3.00;;;16.90;99.90;;;;;;5001556;28;20129;-58
2023/07/27 09:50:01;;;;;;;3.55;3.00;;;16.90;99.90;;;;;;4997041;28;20095;-60
2023/07/27 09:52:28;;;;;;;3.72;3.33;;;17.00;99.90;;;;;;4998512;28;20160;-60
2023/07/27 09:54:58;;;;;;;3.63;2.90;;;17.00;99.90;;;;;;4980357;28;20038;-60
2023/07/27 09:57:25;;;;;;;3.03;2.60;;;17.00;99.90;;;;;;5003075;28;20050;-60
2023/07/27 09:59:52;;;;;;;3.83;3.30;;;17.00;99.90;;;;;;5007102;28;20030;-59
2023/07/27 10:02:18;;;;;;;2.88;2.40;;;17.00;99.90;;;;;;5005556;28;20068;-61
2023/07/27 10:04:46;;;;;;;3.08;2.78;;;17.00;99.90;;;;;;5001692;28;20493;-59
2023/07/27 10:07:12;;;;;;;3.42;2.75;;;17.00;99.90;;;;;;5000124;28;20093;-59
2023/07/27 10:09:38;;;;;;;4.07;3.13;;;17.00;99.90;;;;;;5008504;28;20054;-59
2023/07/27 10:12:04;;;;;;;5.30;3.28;;;17.10;99.90;;;;;;5002551;28;20042;-59
2023/07/27 10:14:32;;;;;;;5.53;3.60;;;17.10;99.90;;;;;;5004471;28;20030;-59
2023/07/27 10:17:02;;;;;;;4.03;3.50;;;17.20;99.90;;;;;;4986499;28;20112;-58
2023/07/27 10:19:46;;;;;;;4.60;4.05;;;17.30;99.90;;;;;;5002050;28;20037;-57
2023/07/27 10:22:14;;;;;;;5.47;4.57;;;17.30;99.90;;;;;;4966702;28;20049;-61
2023/07/27 10:24:49;;;;;;;4.93;3.70;;;17.40;99.90;;;;;;4996717;28;20519;-60
2023/07/27 10:27:17;;;;;;;4.28;3.88;;;17.40;99.90;;;;;;5004354;28;20038;-60
2023/07/27 10:30:08;;;;;;;5.05;4.18;;;17.40;99.90;;;;;;5002550;28;20052;-60
2023/07/27 10:32:36;;;;;;;4.50;3.85;;;17.40;99.90;;;;;;5006915;28;20030;-60
2023/07/27 10:35:07;;;;;;;4.13;3.65;;;17.40;99.90;;;;;;5013122;28;20038;-59
2023/07/27 10:37:53;;;;;;;5.05;4.55;;;17.40;99.90;;;;;;5016595;28;20041;-60
2023/07/27 10:40:29;;;;;;;6.22;4.03;;;17.50;99.90;;;;;;5013777;28;20033;-59
2023/07/27 10:42:56;;;;;;;4.82;4.10;;;17.50;99.90;;;;;;4999832;28;20070;-60
2023/07/27 10:45:26;;;;;;;5.25;4.75;;;17.50;99.90;;;;;;4998935;28;20056;-58
2023/07/27 10:47:56;;;;;;;5.35;4.85;;;17.50;99.90;;;;;;5004886;28;20040;-60
2023/07/27 10:50:22;;;;;;;4.88;4.43;;;17.50;99.90;;;;;;4978522;28;20103;-59
2023/07/27 10:52:52;;;;;;;4.53;4.13;;;17.50;99.90;;;;;;5001340;28;20457;-59
2023/07/27 10:55:19;;;;;;;5.68;4.80;;;17.50;99.90;;;;;;4988113;28;20049;-60
2023/07/27 10:57:47;;;;;;;6.72;5.93;;;17.60;99.90;;;;;;5004850;28;20550;-60
2023/07/27 11:00:13;;;;;;;5.57;5.07;;;17.60;99.90;;;;;;4985146;28;20046;-59
2023/07/27 11:02:44;;;;;;;5.65;5.15;;;17.70;99.90;;;;;;5008607;28;20033;-60
2023/07/27 11:05:12;;;;;;;5.22;4.72;;;17.70;99.90;;;;;;5004120;28;20413;-59
2023/07/27 11:07:41;;;;;;;6.07;5.32;;;17.70;99.90;;;;;;4997146;28;20066;-56
2023/07/27 11:10:08;;;;;;;6.60;5.47;;;17.80;99.90;;;;;;4999031;28;20046;-59
2023/07/27 11:12:51;;;;;;;6.30;5.43;;;17.80;99.90;;;;;;5006894;28;20059;-57
2023/07/27 11:15:21;;;;;;;7.60;5.88;;;17.90;99.90;;;;;;4998263;28;20536;-59
2023/07/27 11:17:48;;;;;;;6.03;5.53;;;17.90;99.90;;;;;;4989592;28;20057;-58
2023/07/27 11:20:17;;;;;;;5.50;5.00;;;17.90;99.90;;;;;;4988000;28;20729;-59
2023/07/27 11:22:43;;;;;;;6.15;5.65;;;17.90;99.90;;;;;;5007576;28;20029;-58
2023/07/27 11:25:10;;;;;;;7.00;5.93;;;18.00;99.90;;;;;;4988965;28;20096;-59
2023/07/27 11:27:37;;;;;;;6.60;6.00;;;18.00;99.90;;;;;;5000221;28;20128;-59
2023/07/27 11:30:09;;;;;;;7.38;6.35;;;18.10;99.90;;;;;;4984469;28;20049;-59
2023/07/27 11:32:35;;;;;;;6.93;6.32;;;18.10;99.90;;;;;;5001432;28;20639;-58
2023/07/27 11:35:01;;;;;;;6.32;5.68;;;18.20;99.90;;;;;;5000628;28;20060;-59
2023/07/27 11:37:30;;;;;;;7.65;6.97;;;18.20;99.90;;;;;;5007634;28;20060;-59
2023/07/27 11:39:56;;;;;;;6.85;6.25;;;18.30;99.90;;;;;;4988027;28;20049;-60
2023/07/27 11:42:30;;;;;;;6.50;5.90;;;18.30;99.90;;;;;;4999327;28;20077;-59
2023/07/27 11:44:56;;;;;;;;;;;18.40;99.90;;;;;;4999431;28;20048;-60
2023/07/27 11:47:23;;;;;;;5.60;5.10;;;18.40;99.90;;;;;;4990503;28;19960;-60
2023/07/27 11:49:50;;;;;;;5.65;5.22;;;18.40;99.90;;;;;;5003167;28;20080;-58
2023/07/27 11:52:20;;;;;;;6.70;6.10;;;18.40;99.90;;;;;;5002996;28;20076;-58
2023/07/27 11:54:51;;;;;;;6.55;5.95;;;18.40;99.90;;;;;;5009127;28;20053;-58
2023/07/27 11:57:17;;;;;;;5.95;5.40;;;18.50;99.90;;;;;;4990278;28;20062;-59
2023/07/27 12:00:12;;;;;;;5.45;4.95;;;18.60;99.90;;;;;;5009209;28;20061;-57
2023/07/27 12:02:44;;;;;;;6.32;5.82;;;18.70;99.90;;;;;;5001485;28;20061;-58
2023/07/27 12:05:14;;;;;;;6.37;5.77;;;18.70;99.90;;;;;;5000747;28;20050;-58
2023/07/27 12:07:41;;;;;;;6.72;6.03;;;18.80;99.90;;;;;;5003584;28;20309;-57
2023/07/27 12:10:16;;;;;;;6.10;5.60;;;18.80;99.90;;;;;;4994917;28;20049;-56
2023/07/27 12:13:05;;;;;;;6.18;5.57;;;18.90;99.90;;;;;;5005380;28;20068;-57
2023/07/27 12:15:36;;;;;;;4.88;4.47;;;19.00;99.90;;;;;;4978049;28;20080;-58
2023/07/27 12:18:04;;;;;;;5.75;5.25;;;19.10;99.90;;;;;;4999874;28;20517;-59
2023/07/27 12:20:31;;;;;;;4.03;3.67;;;19.10;99.90;;;;;;5003202;28;20539;-59
2023/07/27 12:22:57;;;;;;;3.50;3.20;;;19.10;99.90;;;;;;5003387;28;20076;-57
2023/07/27 12:25:26;;;;;;;4.50;4.00;;;19.20;99.90;;;;;;5005862;28;20062;-58
2023/07/27 12:27:52;;;;;;;4.03;3.53;;;19.20;99.90;;;;;;5006455;28;20041;-59
2023/07/27 12:30:19;;;;;;;5.95;5.35;;;19.30;99.90;;;;;;5001938;28;20041;-57
2023/07/27 12:32:45;;;;;;;3.20;2.88;;;19.30;99.90;;;;;;4982060;28;20038;-58
2023/07/27 12:35:11;;;;;;;4.28;2.85;;;19.40;99.90;;;;;;4985182;28;20469;-57
2023/07/27 12:37:37;;;;;;;3.08;2.78;;;19.40;99.90;;;;;;5002949;28;20408;-59
2023/07/27 12:40:03;;;;;;;3.03;2.58;;;19.50;99.90;;;;;;5006968;28;20092;-59
2023/07/27 12:42:29;;;;;;;3.03;2.70;;;19.60;99.90;;;;;;5002325;28;20046;-61
2023/07/27 12:44:56;;;;;;;3.00;2.67;;;19.50;99.90;;;;;;4999839;28;20089;-58